sensor_id;sensor_type;location;lat;lon;timestamp;P1;P2;P0
82886;PMS5003;72660;51.258;-2.200;2024-01-07T00:01:35;50;42;
82886;PMS5003;72660;51.258;-2.200;2024-01-07T00:04:00;40;35;
82886;PMS5003;72660;51.258;-2.200;2024-01-07T00:06:26;36;34;
82886;PMS5003;72660;51.258;-2.200;2024-01-07T00:08:51;38;35;
82886;PMS5003;72660;51.258;-2.200;2024-01-07T00:11:17;42;34;
82886;PMS5003;72660;51.258;-2.200;2024-01-07T00:13:42;42;39;
82886;PMS5003;72660;51.258;-2.200;2024-01-07T00:16:08;41;37;
82886;PMS5003;72660;51.258;-2.200;2024-01-07T00:18:33;35;31;
82886;PMS5003;72660;51.258;-2.200;2024-01-07T00:20:59;44;35;
82886;PMS5003;72660;51.258;-2.200;2024-01-07T00:23:25;35;31;
82886;PMS5003;72660;51.258;-2.200;2024-01-07T00:25:50;41;33;
82886;PMS5003;72660;51.258;-2.200;2024-01-07T00:28:15;41;35;
82886;PMS5003;72660;51.258;-2.200;2024-01-07T00:30:41;44;41;
82886;PMS5003;72660;51.258;-2.200;2024-01-07T00:33:06;40;35;
82886;PMS5003;72660;51.258;-2.200;2024-01-07T00:35:32;37;36;
82886;PMS5003;72660;51.258;-2.200;2024-01-07T00:37:58;42;37;
82886;PMS5003;72660;51.258;-2.200;2024-01-07T00:40:24;38;35;
82886;PMS5003;72660;51.258;-2.200;2024-01-07T00:42:49;34;32;
82886;PMS5003;72660;51.258;-2.200;2024-01-07T00:45:14;41;37;
82886;PMS5003;72660;51.258;-2.200;2024-01-07T00:47:40;32;30;
82886;PMS5003;72660;51.258;-2.200;2024-01-07T00:50:06;37;37;
82886;PMS5003;72660;51.258;-2.200;2024-01-07T00:52:31;44;36;
82886;PMS5003;72660;51.258;-2.200;2024-01-07T00:54:57;38;36;
82886;PMS5003;72660;51.258;-2.200;2024-01-07T00:57:23;43;35;
82886;PMS5003;72660;51.258;-2.200;2024-01-07T00:59:48;38;37;
82886;PMS5003;72660;51.258;-2.200;2024-01-07T01:02:14;40;33;
82886;PMS5003;72660;51.258;-2.200;2024-01-07T01:04:40;39;35;
82886;PMS5003;72660;51.258;-2.200;2024-01-07T01:07:05;33;30;
82886;PMS5003;72660;51.258;-2.200;2024-01-07T01:09:30;35;33;
82886;PMS5003;72660;51.258;-2.200;2024-01-07T01:11:55;37;34;
82886;PMS5003;72660;51.258;-2.200;2024-01-07T01:14:21;37;35;
82886;PMS5003;72660;51.258;-2.200;2024-01-07T01:16:46;33;33;
82886;PMS5003;72660;51.258;-2.200;2024-01-07T01:19:12;39;35;
82886;PMS5003;72660;51.258;-2.200;2024-01-07T01:21:38;36;35;
82886;PMS5003;72660;51.258;-2.200;2024-01-07T01:24:03;40;36;
82886;PMS5003;72660;51.258;-2.200;2024-01-07T01:26:28;41;33;
82886;PMS5003;72660;51.258;-2.200;2024-01-07T01:28:54;41;37;
82886;PMS5003;72660;51.258;-2.200;2024-01-07T01:31:19;37;35;
82886;PMS5003;72660;51.258;-2.200;2024-01-07T01:33:45;37;34;
82886;PMS5003;72660;51.258;-2.200;2024-01-07T01:36:10;38;36;
82886;PMS5003;72660;51.258;-2.200;2024-01-07T01:38:36;41;33;
82886;PMS5003;72660;51.258;-2.200;2024-01-07T01:41:01;40;36;
82886;PMS5003;72660;51.258;-2.200;2024-01-07T01:43:28;41;36;
82886;PMS5003;72660;51.258;-2.200;2024-01-07T01:45:53;41;36;
82886;PMS5003;72660;51.258;-2.200;2024-01-07T01:48:18;38;36;
82886;PMS5003;72660;51.258;-2.200;2024-01-07T01:50:44;39;37;
82886;PMS5003;72660;51.258;-2.200;2024-01-07T01:53:09;35;34;
82886;PMS5003;72660;51.258;-2.200;2024-01-07T01:55:35;39;35;
82886;PMS5003;72660;51.258;-2.200;2024-01-07T01:58:00;39;35;
82886;PMS5003;72660;51.258;-2.200;2024-01-07T02:00:25;41;35;
82886;PMS5003;72660;51.258;-2.200;2024-01-07T02:02:51;39;35;
82886;PMS5003;72660;51.258;-2.200;2024-01-07T02:05:16;39;37;
82886;PMS5003;72660;51.258;-2.200;2024-01-07T02:07:42;42;35;
82886;PMS5003;72660;51.258;-2.200;2024-01-07T02:10:07;35;33;
82886;PMS5003;72660;51.258;-2.200;2024-01-07T02:12:32;44;40;
82886;PMS5003;72660;51.258;-2.200;2024-01-07T02:14:58;35;34;
82886;PMS5003;72660;51.258;-2.200;2024-01-07T02:17:23;37;32;
82886;PMS5003;72660;51.258;-2.200;2024-01-07T02:19:49;35;33;
82886;PMS5003;72660;51.258;-2.200;2024-01-07T02:22:15;39;36;
82886;PMS5003;72660;51.258;-2.200;2024-01-07T02:24:40;47;42;
82886;PMS5003;72660;51.258;-2.200;2024-01-07T02:27:06;44;38;
82886;PMS5003;72660;51.258;-2.200;2024-01-07T02:29:31;32;29;
82886;PMS5003;72660;51.258;-2.200;2024-01-07T02:31:56;38;34;
82886;PMS5003;72660;51.258;-2.200;2024-01-07T02:34:22;38;35;
82886;PMS5003;72660;51.258;-2.200;2024-01-07T02:36:48;35;28;
82886;PMS5003;72660;51.258;-2.200;2024-01-07T02:39:13;39;35;
82886;PMS5003;72660;51.258;-2.200;2024-01-07T02:41:39;42;39;
82886;PMS5003;72660;51.258;-2.200;2024-01-07T02:44:04;37;35;
82886;PMS5003;72660;51.258;-2.200;2024-01-07T02:46:30;34;28;
82886;PMS5003;72660;51.258;-2.200;2024-01-07T02:48:56;31;30;
82886;PMS5003;72660;51.258;-2.200;2024-01-07T02:51:21;40;35;
82886;PMS5003;72660;51.258;-2.200;2024-01-07T02:53:46;35;31;
82886;PMS5003;72660;51.258;-2.200;2024-01-07T02:56:12;39;35;
82886;PMS5003;72660;51.258;-2.200;2024-01-07T02:58:37;36;36;
82886;PMS5003;72660;51.258;-2.200;2024-01-07T03:01:05;45;39;
82886;PMS5003;72660;51.258;-2.200;2024-01-07T03:03:29;40;37;
82886;PMS5003;72660;51.258;-2.200;2024-01-07T03:05:54;42;35;
82886;PMS5003;72660;51.258;-2.200;2024-01-07T03:08:19;40;39;
82886;PMS5003;72660;51.258;-2.200;2024-01-07T03:10:44;41;38;
82886;PMS5003;72660;51.258;-2.200;2024-01-07T03:13:10;46;39;
82886;PMS5003;72660;51.258;-2.200;2024-01-07T03:15:36;37;37;
82886;PMS5003;72660;51.258;-2.200;2024-01-07T03:18:01;47;44;
82886;PMS5003;72660;51.258;-2.200;2024-01-07T03:20:27;44;38;
82886;PMS5003;72660;51.258;-2.200;2024-01-07T03:22:52;47;39;
82886;PMS5003;72660;51.258;-2.200;2024-01-07T03:25:18;34;31;
82886;PMS5003;72660;51.258;-2.200;2024-01-07T03:27:43;46;42;
82886;PMS5003;72660;51.258;-2.200;2024-01-07T03:30:09;41;36;
82886;PMS5003;72660;51.258;-2.200;2024-01-07T03:32:34;47;39;
82886;PMS5003;72660;51.258;-2.200;2024-01-07T03:34:59;40;39;
82886;PMS5003;72660;51.258;-2.200;2024-01-07T03:37:25;45;41;
82886;PMS5003;72660;51.258;-2.200;2024-01-07T03:39:50;44;39;
82886;PMS5003;72660;51.258;-2.200;2024-01-07T03:42:16;46;40;
82886;PMS5003;72660;51.258;-2.200;2024-01-07T03:44:41;46;40;
82886;PMS5003;72660;51.258;-2.200;2024-01-07T03:47:06;45;41;
82886;PMS5003;72660;51.258;-2.200;2024-01-07T03:49:32;45;40;
82886;PMS5003;72660;51.258;-2.200;2024-01-07T03:51:57;44;36;
82886;PMS5003;72660;51.258;-2.200;2024-01-07T03:54:23;46;41;
82886;PMS5003;72660;51.258;-2.200;2024-01-07T03:56:49;45;43;
82886;PMS5003;72660;51.258;-2.200;2024-01-07T03:59:14;55;43;
82886;PMS5003;72660;51.258;-2.200;2024-01-07T04:01:40;44;37;
82886;PMS5003;72660;51.258;-2.200;2024-01-07T04:04:05;45;39;
82886;PMS5003;72660;51.258;-2.200;2024-01-07T04:06:30;35;34;
82886;PMS5003;72660;51.258;-2.200;2024-01-07T04:08:56;46;42;
82886;PMS5003;72660;51.258;-2.200;2024-01-07T04:11:22;49;45;
82886;PMS5003;72660;51.258;-2.200;2024-01-07T04:13:47;45;39;
82886;PMS5003;72660;51.258;-2.200;2024-01-07T04:16:16;40;38;
82886;PMS5003;72660;51.258;-2.200;2024-01-07T04:18:38;39;35;
82886;PMS5003;72660;51.258;-2.200;2024-01-07T04:21:04;42;39;
82886;PMS5003;72660;51.258;-2.200;2024-01-07T04:23:30;47;43;
82886;PMS5003;72660;51.258;-2.200;2024-01-07T04:25:55;45;42;
82886;PMS5003;72660;51.258;-2.200;2024-01-07T04:28:20;51;46;
82886;PMS5003;72660;51.258;-2.200;2024-01-07T04:30:46;51;44;
82886;PMS5003;72660;51.258;-2.200;2024-01-07T04:33:12;41;35;
82886;PMS5003;72660;51.258;-2.200;2024-01-07T04:35:38;50;43;
82886;PMS5003;72660;51.258;-2.200;2024-01-07T04:38:03;49;39;
82886;PMS5003;72660;51.258;-2.200;2024-01-07T04:40:29;41;36;
82886;PMS5003;72660;51.258;-2.200;2024-01-07T04:42:55;47;41;
82886;PMS5003;72660;51.258;-2.200;2024-01-07T04:45:20;42;42;
82886;PMS5003;72660;51.258;-2.200;2024-01-07T04:47:45;42;37;
82886;PMS5003;72660;51.258;-2.200;2024-01-07T04:50:11;48;46;
82886;PMS5003;72660;51.258;-2.200;2024-01-07T04:52:36;52;42;
82886;PMS5003;72660;51.258;-2.200;2024-01-07T04:55:01;49;45;
82886;PMS5003;72660;51.258;-2.200;2024-01-07T04:57:26;41;38;
82886;PMS5003;72660;51.258;-2.200;2024-01-07T04:59:52;48;40;
82886;PMS5003;72660;51.258;-2.200;2024-01-07T05:02:17;38;34;
82886;PMS5003;72660;51.258;-2.200;2024-01-07T05:04:42;50;43;
82886;PMS5003;72660;51.258;-2.200;2024-01-07T05:07:07;40;36;
82886;PMS5003;72660;51.258;-2.200;2024-01-07T05:09:33;39;37;
82886;PMS5003;72660;51.258;-2.200;2024-01-07T05:11:58;40;37;
82886;PMS5003;72660;51.258;-2.200;2024-01-07T05:14:24;43;37;
82886;PMS5003;72660;51.258;-2.200;2024-01-07T05:16:50;44;39;
82886;PMS5003;72660;51.258;-2.200;2024-01-07T05:19:15;54;50;
82886;PMS5003;72660;51.258;-2.200;2024-01-07T05:21:41;43;42;
82886;PMS5003;72660;51.258;-2.200;2024-01-07T05:24:06;50;43;
82886;PMS5003;72660;51.258;-2.200;2024-01-07T05:28:57;47;44;
82886;PMS5003;72660;51.258;-2.200;2024-01-07T05:31:22;40;36;
82886;PMS5003;72660;51.258;-2.200;2024-01-07T05:33:48;45;41;
82886;PMS5003;72660;51.258;-2.200;2024-01-07T05:36:14;40;36;
82886;PMS5003;72660;51.258;-2.200;2024-01-07T05:38:41;42;37;
82886;PMS5003;72660;51.258;-2.200;2024-01-07T05:41:05;41;38;
82886;PMS5003;72660;51.258;-2.200;2024-01-07T05:43:31;40;39;
82886;PMS5003;72660;51.258;-2.200;2024-01-07T05:45:57;39;38;
82886;PMS5003;72660;51.258;-2.200;2024-01-07T05:48:22;49;40;
82886;PMS5003;72660;51.258;-2.200;2024-01-07T05:50:47;47;43;
82886;PMS5003;72660;51.258;-2.200;2024-01-07T05:53:12;47;39;
82886;PMS5003;72660;51.258;-2.200;2024-01-07T05:55:38;49;45;
82886;PMS5003;72660;51.258;-2.200;2024-01-07T05:58:04;44;40;
82886;PMS5003;72660;51.258;-2.200;2024-01-07T06:00:29;48;44;
82886;PMS5003;72660;51.258;-2.200;2024-01-07T06:02:55;45;38;
82886;PMS5003;72660;51.258;-2.200;2024-01-07T06:05:21;45;40;
82886;PMS5003;72660;51.258;-2.200;2024-01-07T06:07:46;49;42;
82886;PMS5003;72660;51.258;-2.200;2024-01-07T06:10:12;39;36;
82886;PMS5003;72660;51.258;-2.200;2024-01-07T06:12:37;46;39;
82886;PMS5003;72660;51.258;-2.200;2024-01-07T06:15:03;34;33;
82886;PMS5003;72660;51.258;-2.200;2024-01-07T06:17:29;46;38;
82886;PMS5003;72660;51.258;-2.200;2024-01-07T06:19:54;36;35;
82886;PMS5003;72660;51.258;-2.200;2024-01-07T06:22:19;44;40;
82886;PMS5003;72660;51.258;-2.200;2024-01-07T06:24:44;44;38;
82886;PMS5003;72660;51.258;-2.200;2024-01-07T06:27:10;39;34;
82886;PMS5003;72660;51.258;-2.200;2024-01-07T06:29:35;45;38;
82886;PMS5003;72660;51.258;-2.200;2024-01-07T06:32:01;40;35;
82886;PMS5003;72660;51.258;-2.200;2024-01-07T06:34:27;38;32;
82886;PMS5003;72660;51.258;-2.200;2024-01-07T06:36:52;40;32;
82886;PMS5003;72660;51.258;-2.200;2024-01-07T06:39:17;35;32;
82886;PMS5003;72660;51.258;-2.200;2024-01-07T06:41:43;43;38;
82886;PMS5003;72660;51.258;-2.200;2024-01-07T06:44:08;33;30;
82886;PMS5003;72660;51.258;-2.200;2024-01-07T06:46:34;31;29;
82886;PMS5003;72660;51.258;-2.200;2024-01-07T06:48:59;36;30;
82886;PMS5003;72660;51.258;-2.200;2024-01-07T06:51:25;34;30;
82886;PMS5003;72660;51.258;-2.200;2024-01-07T06:53:50;31;30;
82886;PMS5003;72660;51.258;-2.200;2024-01-07T06:56:16;31;29;
82886;PMS5003;72660;51.258;-2.200;2024-01-07T06:58:41;32;30;
82886;PMS5003;72660;51.258;-2.200;2024-01-07T07:01:06;36;32;
82886;PMS5003;72660;51.258;-2.200;2024-01-07T07:03:31;34;27;
82886;PMS5003;72660;51.258;-2.200;2024-01-07T07:05:57;35;28;
82886;PMS5003;72660;51.258;-2.200;2024-01-07T07:08:22;30;27;
82886;PMS5003;72660;51.258;-2.200;2024-01-07T07:10:47;27;27;
82886;PMS5003;72660;51.258;-2.200;2024-01-07T07:13:13;30;28;
82886;PMS5003;72660;51.258;-2.200;2024-01-07T07:15:38;27;26;
82886;PMS5003;72660;51.258;-2.200;2024-01-07T07:18:04;35;32;
82886;PMS5003;72660;51.258;-2.200;2024-01-07T07:20:29;29;27;
82886;PMS5003;72660;51.258;-2.200;2024-01-07T07:22:55;30;29;
82886;PMS5003;72660;51.258;-2.200;2024-01-07T07:25:20;25;24;
82886;PMS5003;72660;51.258;-2.200;2024-01-07T07:27:46;25;24;
82886;PMS5003;72660;51.258;-2.200;2024-01-07T07:30:11;33;28;
82886;PMS5003;72660;51.258;-2.200;2024-01-07T07:32:38;31;27;
82886;PMS5003;72660;51.258;-2.200;2024-01-07T07:35:02;24;24;
82886;PMS5003;72660;51.258;-2.200;2024-01-07T07:37:28;26;23;
82886;PMS5003;72660;51.258;-2.200;2024-01-07T07:39:53;18;17;
82886;PMS5003;72660;51.258;-2.200;2024-01-07T07:42:18;26;21;
82886;PMS5003;72660;51.258;-2.200;2024-01-07T07:44:44;20;18;
82886;PMS5003;72660;51.258;-2.200;2024-01-07T07:47:10;18;17;
82886;PMS5003;72660;51.258;-2.200;2024-01-07T07:49:35;17;13;
82886;PMS5003;72660;51.258;-2.200;2024-01-07T07:52:00;13;13;
82886;PMS5003;72660;51.258;-2.200;2024-01-07T07:54:26;13;11;
82886;PMS5003;72660;51.258;-2.200;2024-01-07T07:56:51;8;8;
82886;PMS5003;72660;51.258;-2.200;2024-01-07T07:59:16;10;10;
82886;PMS5003;72660;51.258;-2.200;2024-01-07T08:01:42;12;10;
82886;PMS5003;72660;51.258;-2.200;2024-01-07T08:04:07;7;6;
82886;PMS5003;72660;51.258;-2.200;2024-01-07T08:06:32;11;8;
82886;PMS5003;72660;51.258;-2.200;2024-01-07T08:08:58;7;6;
82886;PMS5003;72660;51.258;-2.200;2024-01-07T08:11:23;7;7;
82886;PMS5003;72660;51.258;-2.200;2024-01-07T08:13:49;4;4;
82886;PMS5003;72660;51.258;-2.200;2024-01-07T08:16:14;6;6;
82886;PMS5003;72660;51.258;-2.200;2024-01-07T08:18:41;2;2;
82886;PMS5003;72660;51.258;-2.200;2024-01-07T08:21:05;7;5;
82886;PMS5003;72660;51.258;-2.200;2024-01-07T08:23:31;6;5;
82886;PMS5003;72660;51.258;-2.200;2024-01-07T08:25:57;5;5;
82886;PMS5003;72660;51.258;-2.200;2024-01-07T08:28:22;6;4;
82886;PMS5003;72660;51.258;-2.200;2024-01-07T08:30:47;7;6;
82886;PMS5003;72660;51.258;-2.200;2024-01-07T08:33:13;8;6;
82886;PMS5003;72660;51.258;-2.200;2024-01-07T08:35:38;6;6;
82886;PMS5003;72660;51.258;-2.200;2024-01-07T08:38:04;7;7;
82886;PMS5003;72660;51.258;-2.200;2024-01-07T08:40:29;7;7;
82886;PMS5003;72660;51.258;-2.200;2024-01-07T08:42:55;6;6;
82886;PMS5003;72660;51.258;-2.200;2024-01-07T08:45:20;6;6;
82886;PMS5003;72660;51.258;-2.200;2024-01-07T08:47:45;8;7;
82886;PMS5003;72660;51.258;-2.200;2024-01-07T08:50:11;7;6;
82886;PMS5003;72660;51.258;-2.200;2024-01-07T08:52:36;6;6;
82886;PMS5003;72660;51.258;-2.200;2024-01-07T08:55:02;7;6;
82886;PMS5003;72660;51.258;-2.200;2024-01-07T08:57:27;5;5;
82886;PMS5003;72660;51.258;-2.200;2024-01-07T08:59:52;7;7;
82886;PMS5003;72660;51.258;-2.200;2024-01-07T09:02:18;7;7;
82886;PMS5003;72660;51.258;-2.200;2024-01-07T09:04:43;5;5;
82886;PMS5003;72660;51.258;-2.200;2024-01-07T09:07:09;6;6;
82886;PMS5003;72660;51.258;-2.200;2024-01-07T09:09:34;7;7;
82886;PMS5003;72660;51.258;-2.200;2024-01-07T09:12:00;10;8;
82886;PMS5003;72660;51.258;-2.200;2024-01-07T09:14:25;10;6;
82886;PMS5003;72660;51.258;-2.200;2024-01-07T09:16:51;9;8;
82886;PMS5003;72660;51.258;-2.200;2024-01-07T09:19:17;9;7;
82886;PMS5003;72660;51.258;-2.200;2024-01-07T09:21:42;7;7;
82886;PMS5003;72660;51.258;-2.200;2024-01-07T09:24:07;8;8;
82886;PMS5003;72660;51.258;-2.200;2024-01-07T09:26:33;10;10;
82886;PMS5003;72660;51.258;-2.200;2024-01-07T09:28:58;11;11;
82886;PMS5003;72660;51.258;-2.200;2024-01-07T09:31:23;13;11;
82886;PMS5003;72660;51.258;-2.200;2024-01-07T09:33:49;11;10;
82886;PMS5003;72660;51.258;-2.200;2024-01-07T09:36:14;11;9;
82886;PMS5003;72660;51.258;-2.200;2024-01-07T09:38:40;12;10;
82886;PMS5003;72660;51.258;-2.200;2024-01-07T09:41:05;12;9;
82886;PMS5003;72660;51.258;-2.200;2024-01-07T09:43:31;10;9;
82886;PMS5003;72660;51.258;-2.200;2024-01-07T09:45:56;8;8;
82886;PMS5003;72660;51.258;-2.200;2024-01-07T09:48:21;8;8;
82886;PMS5003;72660;51.258;-2.200;2024-01-07T09:50:46;9;8;
82886;PMS5003;72660;51.258;-2.200;2024-01-07T09:53:14;8;7;
82886;PMS5003;72660;51.258;-2.200;2024-01-07T09:55:40;11;7;
82886;PMS5003;72660;51.258;-2.200;2024-01-07T09:58:03;8;8;
82886;PMS5003;72660;51.258;-2.200;2024-01-07T10:00:28;8;7;
82886;PMS5003;72660;51.258;-2.200;2024-01-07T10:02:54;9;8;
82886;PMS5003;72660;51.258;-2.200;2024-01-07T10:05:19;7;7;
82886;PMS5003;72660;51.258;-2.200;2024-01-07T10:07:45;9;6;
82886;PMS5003;72660;51.258;-2.200;2024-01-07T10:10:12;6;5;
82886;PMS5003;72660;51.258;-2.200;2024-01-07T10:12:36;6;6;
82886;PMS5003;72660;51.258;-2.200;2024-01-07T10:15:01;7;5;
82886;PMS5003;72660;51.258;-2.200;2024-01-07T10:17:27;7;6;
82886;PMS5003;72660;51.258;-2.200;2024-01-07T10:19:52;6;4;
82886;PMS5003;72660;51.258;-2.200;2024-01-07T10:22:17;5;5;
82886;PMS5003;72660;51.258;-2.200;2024-01-07T10:24:43;4;4;
82886;PMS5003;72660;51.258;-2.200;2024-01-07T10:27:09;3;3;
82886;PMS5003;72660;51.258;-2.200;2024-01-07T10:29:34;3;3;
82886;PMS5003;72660;51.258;-2.200;2024-01-07T10:32:00;5;4;
82886;PMS5003;72660;51.258;-2.200;2024-01-07T10:34:25;4;4;
82886;PMS5003;72660;51.258;-2.200;2024-01-07T10:36:50;3;3;
82886;PMS5003;72660;51.258;-2.200;2024-01-07T10:39:16;3;3;
82886;PMS5003;72660;51.258;-2.200;2024-01-07T10:41:42;7;4;
82886;PMS5003;72660;51.258;-2.200;2024-01-07T10:44:07;4;4;
82886;PMS5003;72660;51.258;-2.200;2024-01-07T10:46:32;5;4;
82886;PMS5003;72660;51.258;-2.200;2024-01-07T10:48:59;2;2;
82886;PMS5003;72660;51.258;-2.200;2024-01-07T10:51:23;3;3;
82886;PMS5003;72660;51.258;-2.200;2024-01-07T10:53:51;3;3;
82886;PMS5003;72660;51.258;-2.200;2024-01-07T10:56:14;3;3;
82886;PMS5003;72660;51.258;-2.200;2024-01-07T10:58:40;2;2;
82886;PMS5003;72660;51.258;-2.200;2024-01-07T11:01:06;3;3;
82886;PMS5003;72660;51.258;-2.200;2024-01-07T11:03:33;4;3;
82886;PMS5003;72660;51.258;-2.200;2024-01-07T11:05:58;4;4;
82886;PMS5003;72660;51.258;-2.200;2024-01-07T11:08:23;2;2;
82886;PMS5003;72660;51.258;-2.200;2024-01-07T11:10:50;1;1;
82886;PMS5003;72660;51.258;-2.200;2024-01-07T11:18:04;3;3;
82886;PMS5003;72660;51.258;-2.200;2024-01-07T11:20:29;5;5;
82886;PMS5003;72660;51.258;-2.200;2024-01-07T11:25:29;3;3;
82886;PMS5003;72660;51.258;-2.200;2024-01-07T11:27:46;3;3;
82886;PMS5003;72660;51.258;-2.200;2024-01-07T11:30:18;4;4;
82886;PMS5003;72660;51.258;-2.200;2024-01-07T11:32:37;3;3;
82886;PMS5003;72660;51.258;-2.200;2024-01-07T11:35:02;4;4;
82886;PMS5003;72660;51.258;-2.200;2024-01-07T11:37:28;4;3;
82886;PMS5003;72660;51.258;-2.200;2024-01-07T11:39:54;5;3;
82886;PMS5003;72660;51.258;-2.200;2024-01-07T11:42:19;4;4;
82886;PMS5003;72660;51.258;-2.200;2024-01-07T11:44:46;4;4;
82886;PMS5003;72660;51.258;-2.200;2024-01-07T11:47:10;7;5;
82886;PMS5003;72660;51.258;-2.200;2024-01-07T11:49:35;3;3;
82886;PMS5003;72660;51.258;-2.200;2024-01-07T11:52:01;5;3;
82886;PMS5003;72660;51.258;-2.200;2024-01-07T11:54:26;5;5;
82886;PMS5003;72660;51.258;-2.200;2024-01-07T11:56:51;4;4;
82886;PMS5003;72660;51.258;-2.200;2024-01-07T11:59:17;4;4;
82886;PMS5003;72660;51.258;-2.200;2024-01-07T12:01:42;2;2;
82886;PMS5003;72660;51.258;-2.200;2024-01-07T12:04:08;4;2;
82886;PMS5003;72660;51.258;-2.200;2024-01-07T12:06:33;4;4;
82886;PMS5003;72660;51.258;-2.200;2024-01-07T12:08:59;3;3;
82886;PMS5003;72660;51.258;-2.200;2024-01-07T12:11:24;3;2;
82886;PMS5003;72660;51.258;-2.200;2024-01-07T12:13:50;6;4;
82886;PMS5003;72660;51.258;-2.200;2024-01-07T12:16:15;3;3;
82886;PMS5003;72660;51.258;-2.200;2024-01-07T12:18:41;3;3;
82886;PMS5003;72660;51.258;-2.200;2024-01-07T12:21:06;5;5;
82886;PMS5003;72660;51.258;-2.200;2024-01-07T12:23:34;5;5;
82886;PMS5003;72660;51.258;-2.200;2024-01-07T12:25:57;3;3;
82886;PMS5003;72660;51.258;-2.200;2024-01-07T12:28:23;4;4;
82886;PMS5003;72660;51.258;-2.200;2024-01-07T12:30:48;3;3;
82886;PMS5003;72660;51.258;-2.200;2024-01-07T12:33:15;4;4;
82886;PMS5003;72660;51.258;-2.200;2024-01-07T12:35:39;6;5;
82886;PMS5003;72660;51.258;-2.200;2024-01-07T12:38:04;4;3;
82886;PMS5003;72660;51.258;-2.200;2024-01-07T12:40:30;4;4;
82886;PMS5003;72660;51.258;-2.200;2024-01-07T12:42:55;4;4;
82886;PMS5003;72660;51.258;-2.200;2024-01-07T12:45:20;2;2;
82886;PMS5003;72660;51.258;-2.200;2024-01-07T12:47:46;3;3;
82886;PMS5003;72660;51.258;-2.200;2024-01-07T12:50:12;4;3;
82886;PMS5003;72660;51.258;-2.200;2024-01-07T12:52:37;4;3;
82886;PMS5003;72660;51.258;-2.200;2024-01-07T12:55:03;2;2;
82886;PMS5003;72660;51.258;-2.200;2024-01-07T12:57:28;1;1;
82886;PMS5003;72660;51.258;-2.200;2024-01-07T12:59:53;2;2;
82886;PMS5003;72660;51.258;-2.200;2024-01-07T13:02:18;3;3;
82886;PMS5003;72660;51.258;-2.200;2024-01-07T13:04:44;1;1;
82886;PMS5003;72660;51.258;-2.200;2024-01-07T13:07:09;5;3;
82886;PMS5003;72660;51.258;-2.200;2024-01-07T13:09:35;4;2;
82886;PMS5003;72660;51.258;-2.200;2024-01-07T13:12:00;3;3;
82886;PMS5003;72660;51.258;-2.200;2024-01-07T13:14:26;2;2;
82886;PMS5003;72660;51.258;-2.200;2024-01-07T13:16:51;3;3;
82886;PMS5003;72660;51.258;-2.200;2024-01-07T13:19:17;4;4;
82886;PMS5003;72660;51.258;-2.200;2024-01-07T13:21:42;5;5;
82886;PMS5003;72660;51.258;-2.200;2024-01-07T13:24:07;5;5;
82886;PMS5003;72660;51.258;-2.200;2024-01-07T13:26:33;2;2;
82886;PMS5003;72660;51.258;-2.200;2024-01-07T13:28:58;5;5;
82886;PMS5003;72660;51.258;-2.200;2024-01-07T13:31:24;2;2;
82886;PMS5003;72660;51.258;-2.200;2024-01-07T13:33:49;2;2;
82886;PMS5003;72660;51.258;-2.200;2024-01-07T13:36:15;3;3;
82886;PMS5003;72660;51.258;-2.200;2024-01-07T13:38:40;5;5;
82886;PMS5003;72660;51.258;-2.200;2024-01-07T13:41:06;4;4;
82886;PMS5003;72660;51.258;-2.200;2024-01-07T13:43:31;4;4;
82886;PMS5003;72660;51.258;-2.200;2024-01-07T13:45:57;5;3;
82886;PMS5003;72660;51.258;-2.200;2024-01-07T13:48:22;5;5;
82886;PMS5003;72660;51.258;-2.200;2024-01-07T13:50:48;4;4;
82886;PMS5003;72660;51.258;-2.200;2024-01-07T13:53:13;5;4;
82886;PMS5003;72660;51.258;-2.200;2024-01-07T13:55:39;4;4;
82886;PMS5003;72660;51.258;-2.200;2024-01-07T13:58:04;4;4;
82886;PMS5003;72660;51.258;-2.200;2024-01-07T14:00:29;4;4;
82886;PMS5003;72660;51.258;-2.200;2024-01-07T14:02:55;4;4;
82886;PMS5003;72660;51.258;-2.200;2024-01-07T14:05:20;3;3;
82886;PMS5003;72660;51.258;-2.200;2024-01-07T14:07:46;4;4;
82886;PMS5003;72660;51.258;-2.200;2024-01-07T14:10:11;3;2;
82886;PMS5003;72660;51.258;-2.200;2024-01-07T14:12:37;3;3;
82886;PMS5003;72660;51.258;-2.200;2024-01-07T14:15:02;12;9;
82886;PMS5003;72660;51.258;-2.200;2024-01-07T14:17:28;8;6;
82886;PMS5003;72660;51.258;-2.200;2024-01-07T14:19:53;5;5;
82886;PMS5003;72660;51.258;-2.200;2024-01-07T14:22:19;4;2;
82886;PMS5003;72660;51.258;-2.200;2024-01-07T14:24:44;6;4;
82886;PMS5003;72660;51.258;-2.200;2024-01-07T14:27:10;3;3;
82886;PMS5003;72660;51.258;-2.200;2024-01-07T14:29:35;4;3;
82886;PMS5003;72660;51.258;-2.200;2024-01-07T14:32:01;3;3;
82886;PMS5003;72660;51.258;-2.200;2024-01-07T14:34:26;3;3;
82886;PMS5003;72660;51.258;-2.200;2024-01-07T14:36:51;4;3;
82886;PMS5003;72660;51.258;-2.200;2024-01-07T14:39:17;3;3;
82886;PMS5003;72660;51.258;-2.200;2024-01-07T14:41:43;3;3;
82886;PMS5003;72660;51.258;-2.200;2024-01-07T14:44:08;6;5;
82886;PMS5003;72660;51.258;-2.200;2024-01-07T14:46:33;8;6;
82886;PMS5003;72660;51.258;-2.200;2024-01-07T14:48:59;4;4;
82886;PMS5003;72660;51.258;-2.200;2024-01-07T14:51:24;4;4;
82886;PMS5003;72660;51.258;-2.200;2024-01-07T14:53:49;8;6;
82886;PMS5003;72660;51.258;-2.200;2024-01-07T14:56:15;6;5;
82886;PMS5003;72660;51.258;-2.200;2024-01-07T14:58:40;4;3;
82886;PMS5003;72660;51.258;-2.200;2024-01-07T15:01:06;6;6;
82886;PMS5003;72660;51.258;-2.200;2024-01-07T15:03:32;5;3;
82886;PMS5003;72660;51.258;-2.200;2024-01-07T15:05:57;4;4;
82886;PMS5003;72660;51.258;-2.200;2024-01-07T15:08:23;6;4;
82886;PMS5003;72660;51.258;-2.200;2024-01-07T15:10:48;5;4;
82886;PMS5003;72660;51.258;-2.200;2024-01-07T15:13:14;5;5;
82886;PMS5003;72660;51.258;-2.200;2024-01-07T15:15:39;7;5;
82886;PMS5003;72660;51.258;-2.200;2024-01-07T15:18:05;5;5;
82886;PMS5003;72660;51.258;-2.200;2024-01-07T15:20:30;5;4;
82886;PMS5003;72660;51.258;-2.200;2024-01-07T15:22:56;8;6;
82886;PMS5003;72660;51.258;-2.200;2024-01-07T15:25:21;6;5;
82886;PMS5003;72660;51.258;-2.200;2024-01-07T15:27:46;5;5;
82886;PMS5003;72660;51.258;-2.200;2024-01-07T15:30:12;4;4;
82886;PMS5003;72660;51.258;-2.200;2024-01-07T15:32:37;5;5;
82886;PMS5003;72660;51.258;-2.200;2024-01-07T15:35:03;4;4;
82886;PMS5003;72660;51.258;-2.200;2024-01-07T15:37:28;6;5;
82886;PMS5003;72660;51.258;-2.200;2024-01-07T15:39:54;7;7;
82886;PMS5003;72660;51.258;-2.200;2024-01-07T15:42:20;4;4;
82886;PMS5003;72660;51.258;-2.200;2024-01-07T15:44:45;8;7;
82886;PMS5003;72660;51.258;-2.200;2024-01-07T15:47:11;5;5;
82886;PMS5003;72660;51.258;-2.200;2024-01-07T15:49:37;5;5;
82886;PMS5003;72660;51.258;-2.200;2024-01-07T15:52:03;9;7;
82886;PMS5003;72660;51.258;-2.200;2024-01-07T15:54:27;14;12;
82886;PMS5003;72660;51.258;-2.200;2024-01-07T15:56:53;10;7;
82886;PMS5003;72660;51.258;-2.200;2024-01-07T15:59:18;7;7;
82886;PMS5003;72660;51.258;-2.200;2024-01-07T16:01:45;6;6;
82886;PMS5003;72660;51.258;-2.200;2024-01-07T16:04:09;4;4;
82886;PMS5003;72660;51.258;-2.200;2024-01-07T16:06:34;8;7;
82886;PMS5003;72660;51.258;-2.200;2024-01-07T16:09:00;4;4;
82886;PMS5003;72660;51.258;-2.200;2024-01-07T16:11:25;6;6;
82886;PMS5003;72660;51.258;-2.200;2024-01-07T16:13:51;5;5;